Time;durP1;ratioP1;P1;durP2;ratioP2;P2;SDS_P1;SDS_P2;PMS_P1;PMS_P2;Temp;Humidity;BMP_temperature;BMP_pressure;BME280_temperature;BME280_humidity;BME280_pressure;Samples;Min_cycle;Max_cycle;Signal;HPM_P1;HPM_P2
2022/01/06 00:00:09;;;;;;;15.90;11.37;;;;;;;9.28;66.76;93783.41;4992217;28;20247;-79
2022/01/06 00:02:36;;;;;;;19.50;11.67;;;;;;;9.13;66.92;93786.66;4991897;28;20197;-79
2022/01/06 00:05:04;;;;;;;14.93;11.07;;;;;;;9.07;66.86;93770.22;4991315;28;20200;-82
2022/01/06 00:07:32;;;;;;;14.63;10.47;;;;;;;9.26;66.71;93812.56;4991497;28;20983;-82
2022/01/06 00:09:59;;;;;;;16.13;10.73;;;;;;;9.26;66.73;93807.47;4991797;28;20193;-81
2022/01/06 00:12:35;;;;;;;14.70;11.27;;;;;;;9.09;66.84;93786.16;4995273;28;20557;-82
2022/01/06 00:15:24;;;;;;;16.27;11.33;;;;;;;8.88;66.70;93747.47;4994759;28;20219;-81
2022/01/06 00:23:28;;;;;;;13.03;9.70;;;;;;;9.09;66.99;93798.13;4977539;28;20271;-80
2022/01/06 00:25:57;;;;;;;17.23;11.47;;;;;;;9.20;66.88;93811.44;4992080;28;20189;-86
2022/01/06 00:28:25;;;;;;;18.83;11.27;;;;;;;9.05;66.72;93784.88;4990894;28;20211;-81
2022/01/06 00:30:53;;;;;;;15.73;10.53;;;;;;;8.61;66.39;93728.84;4991513;28;20220;-82
2022/01/06 00:33:21;;;;;;;16.57;10.43;;;;;;;9.11;67.01;93804.69;4990897;28;20185;-80
2022/01/06 00:35:49;;;;;;;14.23;10.30;;;;;;;9.16;66.80;93804.22;4989214;28;20201;-83
2022/01/06 00:38:15;;;;;;;13.40;9.83;;;;;;;9.14;66.71;93806.13;4993578;28;20189;-79
2022/01/06 00:40:42;;;;;;;17.67;10.70;;;;;;;8.70;66.58;93740.69;4999957;28;20666;-85
2022/01/06 00:43:11;;;;;;;14.50;9.73;;;;;;;9.11;66.67;93809.78;4997806;28;20306;-87
2022/01/06 00:45:39;;;;;;;12.60;9.40;;;;;;;9.11;66.83;93814.06;4991710;28;20622;-81
2022/01/06 00:48:07;;;;;;;14.13;10.83;;;;;;;8.79;66.86;93772.91;4991364;28;20204;-84
2022/01/06 00:50:34;;;;;;;15.13;10.53;;;;;;;9.07;66.84;93823.78;4991404;28;20197;-85
2022/01/06 00:53:03;;;;;;;13.23;10.37;;;;;;;9.09;66.95;93826.97;4991359;28;20244;-84
2022/01/06 00:55:31;;;;;;;16.87;11.10;;;;;;;9.05;66.82;93823.13;4991078;28;20494;-87
2022/01/06 00:57:58;;;;;;;12.83;9.30;;;;;;;8.58;66.87;93751.28;4991459;28;20186;-83
2022/01/06 01:00:28;;;;;;;14.43;10.47;;;;;;;9.03;66.70;93830.13;4990715;28;20188;-80
2022/01/06 01:02:56;;;;;;;14.93;9.97;;;;;;;8.68;66.86;93769.81;4993784;28;20196;-82
2022/01/06 01:05:23;;;;;;;13.27;10.00;;;;;;;9.00;66.90;93832.97;4992890;28;20189;-84
2022/01/06 01:07:50;;;;;;;15.53;10.60;;;;;;;9.01;67.22;93832.81;4990944;28;20193;-85
2022/01/06 01:10:17;;;;;;;13.50;9.27;;;;;;;9.00;67.14;93835.53;4990622;28;20189;-82
2022/01/06 01:12:47;;;;;;;15.60;9.77;;;;;;;8.97;67.12;93820.50;4991476;28;20209;-81
2022/01/06 01:15:19;;;;;;;15.27;10.90;;;;;;;8.95;67.08;93841.06;4991088;28;20205;-84
2022/01/06 01:17:47;;;;;;;13.70;10.17;;;;;;;8.95;66.97;93845.38;4991305;28;20212;-84
2022/01/06 01:20:17;;;;;;;15.20;10.70;;;;;;;8.92;67.10;93838.81;4990716;28;20845;-79
2022/01/06 01:22:45;;;;;;;14.73;10.73;;;;;;;8.55;66.93;93788.06;4990594;28;20232;-83
2022/01/06 01:27:58;;;;;;;15.77;10.50;;;;;;;8.85;67.30;93837.81;4989239;28;20189;-79
2022/01/06 01:30:31;;;;;;;17.87;11.50;;;;;;;8.84;67.18;93836.19;4990557;28;20193;-84
2022/01/06 01:32:59;;;;;;;12.30;9.93;;;;;;;8.68;67.13;93810.56;4991452;28;20276;-86
2022/01/06 01:35:32;;;;;;;15.57;10.73;;;;;;;8.71;67.28;93808.53;4990640;28;20276;-85
2022/01/06 01:37:59;;;;;;;16.97;9.80;;;;;;;8.70;67.05;93806.94;4991164;28;20637;-86
2022/01/06 01:40:36;;;;;;;13.83;10.13;;;;;;;8.75;67.27;93821.78;4990809;28;20205;-86
2022/01/06 01:43:04;;;;;;;17.20;10.93;;;;;;;8.73;67.34;93821.16;4975490;28;20191;-84
2022/01/06 01:45:34;;;;;;;16.27;10.67;;;;;;;8.58;67.52;93795.38;4990099;28;20201;-83
2022/01/06 01:48:08;;;;;;;15.07;10.10;;;;;;;8.70;67.41;93801.84;4994506;28;20259;-86
2022/01/06 01:50:38;;;;;;;15.27;10.50;;;;;;;8.56;67.32;93781.22;4995230;28;20287;-85
2022/01/06 01:53:14;;;;;;;18.37;11.13;;;;;;;8.67;67.36;93804.69;4951305;28;20237;-87
2022/01/06 01:55:44;;;;;;;18.70;11.03;;;;;;;8.66;67.43;93805.63;4953971;28;20221;-86
2022/01/06 01:58:18;;;;;;;15.57;10.90;;;;;;;8.63;67.57;93788.09;4953843;28;20206;-85
2022/01/06 02:00:49;;;;;;;13.93;10.77;;;;;;;8.62;67.47;93799.25;4954593;28;20209;-83
2022/01/06 02:03:22;;;;;;;18.33;11.00;;;;;;;8.60;67.49;93790.97;4955119;29;20205;-81
2022/01/06 02:11:12;;;;;;;13.83;9.83;;;;;;;8.56;67.57;93801.59;4953424;28;20221;-79
2022/01/06 02:19:12;;;;;;;17.70;10.97;;;;;;;7.95;67.70;93727.50;4953325;29;20311;-81
2022/01/06 02:21:58;;;;;;;14.43;10.70;;;;;;;8.26;67.81;93778.06;4953096;29;20230;-81
2022/01/06 02:27:19;;;;;;;16.50;11.43;;;;;;;8.34;67.84;93803.63;4953959;29;20214;-80
2022/01/06 02:29:47;;;;;;;16.23;11.77;;;;;;;8.22;67.95;93802.22;4953515;29;20241;-82
2022/01/06 02:32:16;;;;;;;18.47;12.37;;;;;;;8.28;67.99;93822.81;4952386;29;20194;-78
2022/01/06 02:34:44;;;;;;;19.53;11.87;;;;;;;8.32;68.15;93830.16;4953507;29;20289;-79
2022/01/06 02:37:15;;;;;;;16.87;11.23;;;;;;;7.94;67.99;93768.38;4953470;29;20278;-83
2022/01/06 02:39:43;;;;;;;16.07;11.13;;;;;;;8.40;68.20;93843.00;4953782;29;20199;-82
2022/01/06 02:42:15;;;;;;;18.10;12.07;;;;;;;8.38;68.30;93840.63;4953334;28;20232;-83
2022/01/06 02:44:45;;;;;;;16.03;11.73;;;;;;;7.79;68.22;93748.50;4951091;29;20207;-79
2022/01/06 02:47:14;;;;;;;17.30;11.70;;;;;;;8.38;68.31;93832.19;4954515;28;20697;-87
2022/01/06 02:49:51;;;;;;;15.90;11.03;;;;;;;7.27;68.13;93661.03;4954372;28;20198;-85
2022/01/06 02:52:22;;;;;;;19.90;14.20;;;;;;;8.01;68.20;93774.50;4952336;29;20193;-85
2022/01/06 02:55:04;;;;;;;19.87;12.67;;;;;;;8.35;68.40;93828.13;4889477;28;2404114;-84
2022/01/06 02:57:48;;;;;;;18.60;12.50;;;;;;;8.26;68.18;93804.34;4973415;28;20568;-83
2022/01/06 03:03:25;;;;;;;20.07;15.10;;;;;;;7.97;68.47;93768.88;4972767;28;20229;-81
2022/01/06 03:05:52;;;;;;;22.27;15.30;;;;;;;8.28;68.43;93814.38;4973088;28;20190;-82
2022/01/06 03:08:23;;;;;;;21.50;15.10;;;;;;;8.27;68.53;93821.22;4973049;28;20202;-86
2022/01/06 03:10:51;;;;;;;21.97;14.03;;;;;;;8.02;68.32;93781.97;4973153;28;20205;-83
2022/01/06 03:13:18;;;;;;;18.50;14.17;;;;;;;8.26;68.56;93831.56;4974619;28;20197;-82
2022/01/06 03:15:44;;;;;;;20.83;14.07;;;;;;;8.24;68.70;93826.59;4974047;28;20197;-80
2022/01/06 03:18:11;;;;;;;19.87;14.23;;;;;;;8.01;68.56;93784.69;4973507;28;20194;-83
2022/01/06 03:20:38;;;;;;;18.43;13.70;;;;;;;8.23;68.64;93827.53;4973078;28;20196;-80
2022/01/06 03:23:05;;;;;;;20.97;13.20;;;;;;;8.22;68.59;93836.13;4973498;28;20252;-82
2022/01/06 03:25:33;;;;;;;19.30;14.40;;;;;;;8.24;68.51;93824.03;4972764;28;20194;-80
2022/01/06 03:28:00;;;;;;;17.33;13.30;;;;;;;8.22;68.59;93840.44;4972787;28;20197;-82
2022/01/06 03:30:27;;;;;;;15.20;11.73;;;;;;;7.59;68.44;93731.75;4973107;28;20693;-82
2022/01/06 03:32:54;;;;;;;17.90;12.90;;;;;;;8.20;68.52;93835.47;4972097;28;20185;-79
2022/01/06 03:35:24;;;;;;;16.53;12.07;;;;;;;8.19;68.68;93838.16;4972054;28;20201;-81
2022/01/06 03:37:51;;;;;;;14.83;11.17;;;;;;;8.11;68.60;93817.69;4972059;28;20197;-83
2022/01/06 03:40:19;;;;;;;19.73;11.90;;;;;;;7.83;68.53;93781.31;4972608;28;20593;-84
2022/01/06 03:42:48;;;;;;;20.13;12.03;;;;;;;8.17;68.56;93827.31;4972653;28;20226;-81
2022/01/06 03:45:17;;;;;;;17.20;12.23;;;;;;;8.15;68.64;93819.81;4972875;28;20589;-83
2022/01/06 03:47:45;;;;;;;16.60;11.27;;;;;;;7.68;68.63;93766.50;4972188;28;20665;-83
2022/01/06 03:50:13;;;;;;;16.47;12.17;;;;;;;8.15;68.79;93831.75;4974976;28;20193;-80
2022/01/06 03:52:41;;;;;;;17.07;11.80;;;;;;;8.14;68.67;93827.59;4973473;28;20201;-83
2022/01/06 03:55:13;;;;;;;19.53;11.57;;;;;;;7.98;68.99;93808.66;4972782;28;20200;-84
2022/01/06 03:57:40;;;;;;;16.13;11.00;;;;;;;7.98;68.83;93829.03;4972365;28;20205;-79
2022/01/06 04:00:11;;;;;;;16.20;11.03;;;;;;;8.12;68.98;93849.84;4972448;28;20251;-86
2022/01/06 04:02:40;;;;;;;18.73;11.60;;;;;;;7.87;69.02;93808.88;4973151;28;20221;-83
2022/01/06 04:05:11;;;;;;;17.17;11.30;;;;;;;8.10;68.97;93847.47;4973779;28;20198;-88
2022/01/06 04:07:42;;;;;;;14.60;10.63;;;;;;;8.11;69.01;93856.69;4956230;28;20189;-86
2022/01/06 04:10:15;;;;;;;15.10;10.73;;;;;;;8.11;68.98;93833.78;4972580;28;20303;-81
2022/01/06 04:12:43;;;;;;;15.77;11.30;;;;;;;8.09;69.06;93852.72;4971735;28;20201;-80
2022/01/06 04:18:01;;;;;;;17.47;11.13;;;;;;;8.08;69.29;93846.03;4970027;28;20197;-80
2022/01/06 04:20:31;;;;;;;13.53;10.10;;;;;;;7.78;69.35;93805.44;4954478;28;20220;-82
2022/01/06 04:23:06;;;;;;;15.70;10.27;;;;;;;7.85;69.39;93813.31;4971124;28;20233;-82
2022/01/06 04:25:40;;;;;;;13.63;10.47;;;;;;;8.08;69.26;93857.00;4971887;28;20220;-79
2022/01/06 04:28:12;;;;;;;13.37;10.60;;;;;;;8.08;69.58;93849.38;4972166;28;20294;-81
2022/01/06 04:30:41;;;;;;;17.27;9.83;;;;;;;8.07;69.50;93875.75;4954534;28;20630;-81
2022/01/06 04:33:11;;;;;;;15.63;9.87;;;;;;;8.08;69.55;93861.28;4972645;28;20204;-80
2022/01/06 04:35:51;;;;;;;13.60;10.30;;;;;;;8.07;69.67;93865.56;4960700;28;20684;-81
2022/01/06 04:46:43;;;;;;;13.23;10.30;;;;;;;7.80;69.61;93835.84;4971238;28;20194;-82
2022/01/06 04:49:10;;;;;;;15.97;10.80;;;;;;;7.98;69.69;93879.94;4971509;28;20202;-79
2022/01/06 04:51:37;;;;;;;14.57;10.43;;;;;;;8.06;69.46;93897.06;4972979;28;20209;-82
2022/01/06 04:54:05;;;;;;;12.53;9.50;;;;;;;7.95;69.53;93879.47;4984688;28;20221;-78
2022/01/06 04:56:36;;;;;;;19.03;11.23;;;;;;;8.04;69.46;93881.94;4991192;28;20193;-80
2022/01/06 04:59:04;;;;;;;15.20;10.30;;;;;;;8.06;69.31;93889.44;4990593;28;20189;-79
2022/01/06 05:01:31;;;;;;;14.53;11.23;;;;;;;8.05;69.53;93892.94;4990418;28;20628;-80
2022/01/06 05:04:04;;;;;;;13.33;10.23;;;;;;;8.04;69.57;93888.78;4990273;28;20229;-78
2022/01/06 05:06:40;;;;;;;15.33;10.93;;;;;;;7.65;69.43;93824.53;4990037;28;20196;-79
2022/01/06 05:09:11;;;;;;;17.30;10.70;;;;;;;8.01;69.44;93881.41;4990546;28;20192;-80
2022/01/06 05:19:50;;;;;;;14.47;10.87;;;;;;;7.97;69.80;93887.75;4990153;28;20201;-79
2022/01/06 05:22:19;;;;;;;13.90;10.03;;;;;;;7.96;69.88;93892.03;4975166;28;20339;-79
2022/01/06 05:24:50;;;;;;;14.20;9.87;;;;;;;7.97;69.92;93882.66;4994480;28;20209;-80
2022/01/06 05:27:20;;;;;;;17.20;10.17;;;;;;;7.96;69.98;93874.22;4994345;28;20193;-81
2022/01/06 05:29:54;;;;;;;13.00;9.73;;;;;;;7.96;69.80;93886.94;4976421;28;20611;-80
2022/01/06 05:35:21;;;;;;;18.50;11.63;;;;;;;7.83;70.08;93861.00;4992695;28;20664;-79
2022/01/06 05:38:06;;;;;;;15.83;12.07;;;;;;;7.94;70.00;93891.34;4993733;28;20605;-79
2022/01/06 05:40:33;;;;;;;19.67;12.30;;;;;;;7.95;69.92;93889.63;4993795;28;20722;-79
2022/01/06 05:43:04;;;;;;;15.27;11.50;;;;;;;7.93;70.01;93892.31;4993480;28;20235;-80
2022/01/06 05:46:04;;;;;;;21.53;12.33;;;;;;;7.94;69.88;93888.81;4960570;28;20203;-79
2022/01/06 05:48:34;;;;;;;18.83;11.77;;;;;;;7.89;70.07;93890.19;4993677;28;20193;-79
2022/01/06 05:51:05;;;;;;;17.67;12.53;;;;;;;7.96;69.92;93879.31;4976821;28;20196;-80
2022/01/06 05:53:33;;;;;;;16.37;11.43;;;;;;;7.96;70.00;93881.03;4977217;28;20230;-75
2022/01/06 05:56:02;;;;;;;17.97;12.03;;;;;;;7.96;69.91;93899.66;4972076;28;20194;-80
2022/01/06 05:58:29;;;;;;;20.13;12.53;;;;;;;7.98;70.03;93896.97;4971353;28;20217;-83
2022/01/06 06:00:56;;;;;;;17.37;11.83;;;;;;;7.99;70.11;93891.75;4971977;28;20194;-81
2022/01/06 06:03:27;;;;;;;17.47;11.30;;;;;;;7.99;70.19;93889.22;4971300;28;20233;-81
2022/01/06 06:05:54;;;;;;;16.33;11.20;;;;;;;7.99;70.05;93891.75;4972025;28;20201;-83
2022/01/06 06:08:23;;;;;;;20.17;12.50;;;;;;;8.00;70.08;93893.34;4971819;28;20190;-83
2022/01/06 06:10:50;;;;;;;16.07;11.57;;;;;;;8.00;70.23;93905.28;4974014;28;20208;-78
2022/01/06 06:13:18;;;;;;;15.50;11.67;;;;;;;7.90;69.99;93879.06;4938302;28;20197;-82
2022/01/06 06:15:45;;;;;;;19.27;11.63;;;;;;;8.05;69.99;93900.56;4971743;28;20669;-75
2022/01/06 06:18:12;;;;;;;24.83;13.00;;;;;;;8.00;69.83;93895.09;4954124;28;20197;-80
2022/01/06 06:20:45;;;;;;;16.10;12.33;;;;;;;8.07;70.10;93911.38;4971773;28;20208;-75
2022/01/06 06:23:12;;;;;;;20.00;11.73;;;;;;;7.99;69.97;93891.75;4957396;28;20229;-78
2022/01/06 06:25:44;;;;;;;19.80;12.37;;;;;;;8.10;69.90;93923.06;4954860;28;20707;-77
2022/01/06 06:28:14;;;;;;;19.17;12.07;;;;;;;7.74;69.95;93854.22;4971133;28;20185;-79
2022/01/06 06:30:41;;;;;;;20.73;12.37;;;;;;;8.16;69.65;93913.13;4971909;28;20937;-81
2022/01/06 06:33:08;;;;;;;22.00;13.33;;;;;;;8.20;69.75;93916.97;4971200;28;20182;-76
2022/01/06 06:35:35;;;;;;;7.53;5.93;;;;;;;8.35;100.00;93881.63;4972106;28;20186;-81
2022/01/06 06:38:01;;;;;;;9.40;6.90;;;;;;;9.68;100.00;93912.16;4971677;28;20204;-76
2022/01/06 06:40:29;;;;;;;21.47;15.33;;;;;;;10.11;100.00;93890.00;5008021;28;20644;-79
2022/01/06 06:43:02;;;;;;;16.43;11.57;;;;;;;10.27;100.00;93892.63;5009931;28;20228;-80
2022/01/06 06:48:13;;;;;;;17.00;11.43;;;;;;;10.28;100.00;93885.78;5009623;28;20231;-80
2022/01/06 06:50:42;;;;;;;19.20;13.77;;;;;;;10.13;100.00;93902.63;4990647;28;20515;-79
2022/01/06 06:53:18;;;;;;;21.37;15.50;;;;;;;9.83;99.69;93853.66;4967783;28;20692;-78
2022/01/06 06:55:47;;;;;;;20.83;13.27;;;;;;;9.52;95.20;93807.44;4985798;28;20295;-76
2022/01/06 06:58:16;;;;;;;22.37;14.57;;;;;;;10.23;91.81;93929.66;4989024;28;20205;-79
2022/01/06 07:00:45;;;;;;;21.60;14.27;;;;;;;9.91;88.85;93861.34;4966033;28;20280;-79
2022/01/06 07:03:12;;;;;;;19.87;14.87;;;;;;;10.04;86.07;93906.91;4989963;28;20232;-77
2022/01/06 07:05:40;;;;;;;23.70;14.33;;;;;;;10.21;84.24;93912.88;4989694;28;20213;-77
2022/01/06 07:08:08;;;;;;;20.87;14.23;;;;;;;10.27;82.41;93917.38;4989169;28;20201;-80
2022/01/06 07:10:36;;;;;;;21.03;15.07;;;;;;;10.14;80.62;93894.78;4989192;28;20205;-79
2022/01/06 07:13:05;;;;;;;22.67;13.90;;;;;;;10.48;78.68;93935.66;4989913;28;20211;-78
2022/01/06 07:15:38;;;;;;;24.13;14.20;;;;;;;10.89;76.68;93937.50;4989459;28;20197;-78
2022/01/06 07:18:08;;;;;;;22.80;15.60;;;;;;;11.20;75.69;93923.13;4988804;28;20209;-78
2022/01/06 07:20:35;;;;;;;24.33;14.50;;;;;;;11.76;75.69;93938.59;4988775;28;20204;-78
2022/01/06 07:23:23;;;;;;;24.80;15.63;;;;;;;12.22;75.24;93913.19;4986587;28;20235;-78
2022/01/06 07:25:51;;;;;;;26.30;15.80;;;;;;;10.79;74.15;93630.75;4987794;28;20204;-80
2022/01/06 07:28:19;;;;;;;26.27;16.33;;;;;;;11.37;73.21;93623.66;4983528;28;20206;-78
2022/01/06 07:30:47;;;;;;;22.77;15.73;;;;;;;12.53;71.78;93739.59;4987847;28;20212;-77
2022/01/06 07:33:17;;;;;;;20.20;14.37;;;;;;;13.12;70.29;93779.16;4989355;28;20211;-76
2022/01/06 07:35:44;;;;;;;24.57;15.70;;;;;;;14.71;68.65;93917.44;4989204;28;20205;-76
2022/01/06 07:38:11;;;;;;;20.33;15.00;;;;;;;15.25;67.22;93955.63;4989440;28;20203;-79
2022/01/06 07:40:38;;;;;;;21.10;14.80;;;;;;;15.44;65.96;93943.88;4988054;28;20205;-79
2022/01/06 07:43:05;;;;;;;20.17;13.03;;;;;;;15.65;65.28;93959.34;4989277;28;20233;-80
2022/01/06 07:45:32;;;;;;;19.67;12.63;;;;;;;15.76;64.00;93956.28;4988066;28;20732;-80
2022/01/06 07:48:03;;;;;;;16.33;13.03;;;;;;;15.35;63.04;93873.66;4988397;28;20195;-80
2022/01/06 07:50:31;;;;;;;18.73;13.47;;;;;;;15.90;62.01;93959.72;4988830;28;20199;-87
2022/01/06 07:52:58;;;;;;;20.20;13.03;;;;;;;15.92;61.09;93962.91;4986639;28;20200;-81
2022/01/06 07:55:26;;;;;;;19.63;13.20;;;;;;;15.89;60.40;93949.59;4988122;28;20652;-76
2022/01/06 07:57:54;;;;;;;16.97;12.23;;;;;;;15.82;59.64;93974.53;4988361;28;21463;-86
2022/01/06 08:00:22;;;;;;;19.30;13.43;;;;;;;15.77;58.97;93926.13;4988504;28;20205;-77
2022/01/06 08:02:49;;;;;;;18.90;13.00;;;;;;;15.94;57.89;93960.16;4988113;28;20213;-77
2022/01/06 08:05:20;;;;;;;17.70;11.50;;;;;;;16.03;57.12;93975.28;4987474;28;20559;-75
2022/01/06 08:07:47;;;;;;;21.90;12.73;;;;;;;16.01;56.45;93966.13;4990208;28;20205;-76
2022/01/06 08:10:14;;;;;;;17.00;11.03;;;;;;;16.26;55.67;93985.34;4989893;28;20216;-77
2022/01/06 08:12:42;;;;;;;19.20;12.27;;;;;;;16.23;54.87;93957.34;4990199;28;20200;-75
2022/01/06 08:15:10;;;;;;;16.13;11.23;;;;;;;16.24;54.75;93956.38;4990055;28;20204;-77
2022/01/06 08:17:39;;;;;;;16.07;12.43;;;;;;;16.30;54.56;93996.09;4990119;28;20207;-75
2022/01/06 08:20:08;;;;;;;18.23;12.07;;;;;;;16.06;54.40;93963.78;4972835;28;20224;-75
2022/01/06 08:22:40;;;;;;;14.93;11.17;;;;;;;16.08;54.29;93971.34;4989778;28;20203;-76
2022/01/06 08:25:10;;;;;;;18.47;11.60;;;;;;;15.99;54.18;93988.75;4972543;28;20197;-76
2022/01/06 08:27:37;;;;;;;16.27;11.37;;;;;;;15.95;53.93;93977.22;4989738;28;20207;-76
2022/01/06 08:30:07;;;;;;;16.00;11.27;;;;;;;16.50;52.93;93989.25;4987835;28;20221;-76
2022/01/06 08:32:34;;;;;;;15.63;10.83;;;;;;;17.10;51.52;93993.88;4971917;28;20251;-77
2022/01/06 08:35:01;;;;;;;15.83;11.07;;;;;;;17.64;50.33;93967.13;4973218;28;20200;-77
2022/01/06 08:38:08;;;;;;;14.97;11.67;;;;;;;17.65;49.79;93994.56;5248635;23;20424;-76
2022/01/06 08:40:37;;;;;;;15.60;10.57;;;;;;;17.39;50.34;93980.63;4968456;28;20209;-76
2022/01/06 08:43:05;;;;;;;12.97;10.30;;;;;;;16.95;50.55;93950.91;4964341;28;20237;-75
2022/01/06 08:45:32;;;;;;;18.40;11.30;;;;;;;17.03;50.63;93983.53;4953113;28;20201;-76
2022/01/06 08:48:01;;;;;;;13.90;10.53;;;;;;;16.80;50.76;93989.81;4951395;28;20695;-77
2022/01/06 08:50:28;;;;;;;18.73;11.67;;;;;;;16.74;50.99;93977.66;4964261;28;20204;-76
2022/01/06 08:52:57;;;;;;;18.13;11.80;;;;;;;16.44;51.12;93929.84;4968141;28;20201;-76
2022/01/06 08:55:26;;;;;;;17.37;11.20;;;;;;;16.48;51.20;93969.78;4970018;28;20197;-75
2022/01/06 08:57:57;;;;;;;14.13;11.67;;;;;;;16.40;51.38;93969.94;4966595;28;20206;-77
2022/01/06 09:00:27;;;;;;;16.70;10.63;;;;;;;16.35;51.54;93970.50;4964117;28;20806;-77
2022/01/06 09:02:54;;;;;;;18.13;11.47;;;;;;;16.09;51.61;93929.09;4963521;28;20634;-76
2022/01/06 09:05:22;;;;;;;23.50;12.50;;;;;;;16.16;51.76;93958.31;4964743;28;20194;-78
2022/01/06 09:07:52;;;;;;;14.63;11.57;;;;;;;15.87;51.78;93936.91;4967563;28;20580;-79
2022/01/06 09:10:23;;;;;;;16.07;10.70;;;;;;;15.97;52.04;93949.44;4969996;28;20193;-75
2022/01/06 09:12:49;;;;;;;15.83;11.77;;;;;;;16.03;52.10;93952.06;4969996;28;20739;-76
2022/01/06 09:15:18;;;;;;;17.67;11.70;;;;;;;16.01;52.20;93948.88;4970586;28;20200;-75
2022/01/06 09:17:44;;;;;;;16.40;10.90;;;;;;;15.77;52.07;93921.75;4967091;28;20677;-77
2022/01/06 09:20:12;;;;;;;17.90;10.63;;;;;;;15.96;52.16;93963.34;4970378;28;20190;-77
2022/01/06 09:22:39;;;;;;;16.57;11.20;;;;;;;15.96;52.14;93958.19;4970337;28;20197;-76
2022/01/06 09:25:06;;;;;;;20.77;11.63;;;;;;;15.95;52.25;93956.59;4969424;28;20604;-76
2022/01/06 09:27:33;;;;;;;11.63;10.17;;;;;;;15.86;52.22;93939.66;4967358;28;20202;-76
2022/01/06 09:30:00;;;;;;;19.93;11.13;;;;;;;15.92;52.13;93951.81;4969597;28;20293;-77
2022/01/06 09:32:29;;;;;;;15.10;11.60;;;;;;;15.90;52.33;93954.56;4970058;28;20205;-78
2022/01/06 09:34:56;;;;;;;14.67;10.87;;;;;;;15.85;52.31;93936.31;4970187;28;20201;-77
2022/01/06 09:37:23;;;;;;;16.03;10.70;;;;;;;15.90;52.20;93946.03;4968052;28;20202;-78
2022/01/06 09:39:51;;;;;;;16.23;11.60;;;;;;;15.89;52.38;93934.94;4969645;28;20236;-77
2022/01/06 09:42:20;;;;;;;17.60;10.87;;;;;;;15.90;52.21;93936.53;4936458;28;20213;-77
2022/01/06 09:44:54;;;;;;;20.27;10.43;;;;;;;15.92;52.12;93933.75;4969884;28;20237;-77
2022/01/06 09:47:30;;;;;;;16.67;10.63;;;;;;;15.70;52.22;93905.44;4965374;28;20654;-77
2022/01/06 09:49:57;;;;;;;17.13;10.53;;;;;;;15.93;52.04;93915.53;4966665;28;20655;-75
2022/01/06 09:52:24;;;;;;;17.73;10.67;;;;;;;15.94;51.95;93940.31;4965443;28;20206;-76
2022/01/06 09:54:52;;;;;;;18.07;11.40;;;;;;;15.98;51.98;93940.75;4969198;28;20201;-77
2022/01/06 09:57:22;;;;;;;18.63;12.67;;;;;;;15.93;51.97;93918.09;4967087;28;20206;-78
2022/01/06 09:59:49;;;;;;;18.00;11.37;;;;;;;15.96;52.16;93912.56;4965789;28;20244;-76
2022/01/06 10:02:17;;;;;;;16.47;12.03;;;;;;;16.04;52.01;93922.72;4949866;28;20198;-78
2022/01/06 10:05:03;;;;;;;21.77;13.30;;;;;;;16.07;51.77;93931.06;4966683;28;20660;-76
2022/01/06 10:07:37;;;;;;;21.77;13.00;;;;;;;16.03;51.94;93915.97;4964491;28;20216;-80
2022/01/06 10:10:08;;;;;;;21.30;12.67;;;;;;;15.95;51.94;93907.59;4950496;28;20200;-80
2022/01/06 10:12:39;;;;;;;25.37;13.00;;;;;;;16.11;51.79;93922.78;4967834;28;20214;-78
2022/01/06 10:15:17;;;;;;;19.53;12.50;;;;;;;16.23;51.55;93936.69;4964174;28;20209;-78
2022/01/06 10:17:45;;;;;;;21.93;13.37;;;;;;;16.01;51.45;93889.56;4967346;28;20216;-78
2022/01/06 10:20:20;;;;;;;22.00;12.87;;;;;;;16.28;51.60;93916.31;4970584;28;20205;-78
2022/01/06 10:22:50;;;;;;;23.37;12.87;;;;;;;16.39;51.20;93920.09;4953747;28;20231;-75
2022/01/06 10:25:18;;;;;;;19.90;12.40;;;;;;;16.45;51.21;93914.19;4969172;28;20233;-76
2022/01/06 10:27:51;;;;;;;18.83;13.00;;;;;;;16.30;51.04;93909.16;4969799;28;20214;-77
2022/01/06 10:30:19;;;;;;;17.43;12.30;;;;;;;16.29;50.83;93886.94;4973317;28;20573;-76
2022/01/06 10:32:47;;;;;;;22.93;12.50;;;;;;;16.59;50.56;93909.88;4973372;28;20256;-79
2022/01/06 10:35:20;;;;;;;14.57;10.30;;;;;;;16.75;49.99;93908.75;4970415;28;20216;-77
2022/01/06 10:37:48;;;;;;;16.53;11.40;;;;;;;16.84;49.81;93920.50;4972154;28;20680;-75
2022/01/06 10:40:22;;;;;;;18.73;10.67;;;;;;;16.94;49.40;93918.34;4939957;28;20760;-81
2022/01/06 10:42:52;;;;;;;15.17;10.57;;;;;;;17.04;49.39;93910.19;4953046;29;20802;-81
2022/01/06 10:45:22;;;;;;;13.87;9.30;;;;;;;17.12;48.95;93896.31;4952592;29;20254;-81
2022/01/06 10:47:52;;;;;;;15.33;8.57;;;;;;;17.22;48.65;93899.28;4953152;29;20212;-82
2022/01/06 10:50:22;;;;;;;11.73;8.13;;;;;;;17.26;48.24;93890.94;4935994;29;20202;-79
2022/01/06 10:52:53;;;;;;;9.93;7.67;;;;;;;17.23;48.28;93865.53;4946658;29;20210;-80
2022/01/06 10:55:27;;;;;;;10.63;7.77;;;;;;;17.47;48.06;93900.28;4952973;29;20194;-79
2022/01/06 10:57:59;;;;;;;11.57;8.40;;;;;;;17.57;47.94;93886.97;4933059;29;20701;-78
2022/01/06 11:00:30;;;;;;;9.77;6.87;;;;;;;17.66;47.61;93895.31;4938036;29;20202;-78
2022/01/06 11:03:12;;;;;;;10.00;7.07;;;;;;;17.70;47.42;93888.72;4952821;29;20221;-80
2022/01/06 11:05:42;;;;;;;10.00;6.63;;;;;;;17.84;47.41;93889.56;4935393;29;20763;-77
2022/01/06 11:08:12;;;;;;;9.10;6.33;;;;;;;17.91;46.96;93900.69;4952548;29;20241;-80
2022/01/06 11:10:46;;;;;;;7.57;5.50;;;;;;;17.99;46.72;93882.34;4933996;29;20211;-78
2022/01/06 11:13:17;;;;;;;11.47;6.30;;;;;;;18.03;46.70;93881.75;4952241;29;20233;-76
2022/01/06 11:15:46;;;;;;;9.20;6.20;;;;;;;18.12;46.69;93884.91;4935617;29;20198;-80
2022/01/06 11:18:20;;;;;;;7.30;5.63;;;;;;;18.18;46.63;93886.69;4952035;29;20202;-83
2022/01/06 11:20:51;;;;;;;8.13;5.77;;;;;;;18.17;46.13;93881.69;4948847;28;20230;-76
2022/01/06 11:23:22;;;;;;;10.33;5.80;;;;;;;18.11;45.88;93851.47;4935216;28;20206;-75
2022/01/06 11:26:04;;;;;;;9.83;5.67;;;;;;;18.19;45.54;93853.84;4950283;29;20214;-81
2022/01/06 11:28:36;;;;;;;8.47;5.77;;;;;;;18.42;45.73;93874.84;4953088;29;20194;-79
2022/01/06 11:31:15;;;;;;;6.37;5.13;;;;;;;18.50;45.41;93891.94;4952179;29;20210;-80
2022/01/06 11:33:44;;;;;;;7.37;5.00;;;;;;;18.54;45.42;93886.16;4934024;29;20239;-78
2022/01/06 11:36:26;;;;;;;8.03;4.63;;;;;;;18.53;44.98;93878.59;4952494;29;20186;-80
2022/01/06 11:38:55;;;;;;;4.83;3.93;;;;;;;18.63;44.75;93884.13;4951931;28;20230;-77
2022/01/06 11:41:32;;;;;;;5.97;4.40;;;;;;;18.66;44.49;93875.94;4952530;29;20585;-78
2022/01/06 11:44:02;;;;;;;5.33;3.93;;;;;;;18.66;44.25;93868.16;4952846;29;20217;-76
2022/01/06 11:46:40;;;;;;;5.57;4.27;;;;;;;18.65;44.01;93863.19;4937942;29;20562;-76
2022/01/06 11:49:08;;;;;;;8.10;3.73;;;;;;;18.78;44.06;93881.25;4941597;29;20669;-77
2022/01/06 11:51:37;;;;;;;7.80;3.60;;;;;;;18.78;44.12;93868.31;4956184;29;20608;-77
2022/01/06 11:54:15;;;;;;;6.67;3.93;;;;;;;18.82;44.19;93877.25;4925409;29;20201;-77
2022/01/06 11:56:47;;;;;;;4.27;3.07;;;;;;;18.80;44.13;93877.47;4939555;29;20194;-78
2022/01/06 11:59:14;;;;;;;4.47;3.83;;;;;;;18.89;44.14;93877.22;4951978;29;20208;-78
2022/01/06 12:01:50;;;;;;;5.90;4.20;;;;;;;18.91;43.83;93888.16;4952010;29;20275;-81
2022/01/06 12:04:19;;;;;;;8.93;4.40;;;;;;;18.91;44.12;93878.63;4936187;29;20582;-76
2022/01/06 12:06:48;;;;;;;6.80;3.90;;;;;;;18.91;43.98;93868.25;4952046;29;20213;-76
2022/01/06 12:09:17;;;;;;;7.87;4.60;;;;;;;18.93;43.67;93896.53;4951637;29;20204;-76
2022/01/06 12:11:44;;;;;;;6.57;4.30;;;;;;;18.82;43.30;93871.28;4932778;29;20198;-75
2022/01/06 12:14:11;;;;;;;6.80;4.30;;;;;;;18.70;43.32;93847.88;4951401;29;20292;-78
2022/01/06 12:16:41;;;;;;;6.27;3.70;;;;;;;18.94;43.37;93880.78;4951810;29;20707;-77
2022/01/06 12:19:18;;;;;;;7.13;3.67;;;;;;;18.90;43.31;93873.63;4951497;29;20194;-79
2022/01/06 12:21:48;;;;;;;5.37;4.07;;;;;;;18.89;43.45;93870.25;4951575;29;20208;-81
2022/01/06 12:24:18;;;;;;;6.17;3.93;;;;;;;18.92;43.29;93871.63;4951306;29;20226;-82
2022/01/06 12:26:45;;;;;;;4.93;3.43;;;;;;;18.97;43.12;93882.16;4931827;29;20202;-79